Time;durP1;ratioP1;P1;durP2;ratioP2;P2;SDS_P1;SDS_P2;PMS_P1;PMS_P2;Temp;Humidity;BMP_temperature;BMP_pressure;BME280_temperature;BME280_humidity;BME280_pressure;Samples;Min_cycle;Max_cycle;Signal;HPM_P1;HPM_P2
2021/04/12 00:01:07;;;;;;;16.25;4.12;;;;;;;22.97;38.57;99863.25;4455032;32;33742;-50
2021/04/12 00:03:45;;;;;;;16.17;4.37;;;;;;;22.96;38.61;99854.25;4467333;32;34129;-48
2021/04/12 00:06:44;;;;;;;15.88;4.15;;;;;;;22.96;38.58;99856.97;4467554;32;34395;-50
2021/04/12 00:09:17;;;;;;;12.45;4.00;;;;;;;22.98;38.47;99841.25;4469625;32;34831;-53
2021/04/12 00:11:48;;;;;;;12.57;4.28;;;;;;;22.95;38.63;99844.44;4455097;32;34555;-52
2021/04/12 00:14:35;;;;;;;13.65;3.58;;;;;;;22.94;38.49;99839.19;4467213;32;33308;-48
2021/04/12 00:17:07;;;;;;;14.57;4.53;;;;;;;22.97;38.44;99847.75;4467618;32;34606;-52
2021/04/12 00:19:40;;;;;;;14.93;4.10;;;;;;;22.96;38.62;99840.66;4467373;32;33896;-50
2021/04/12 00:22:33;;;;;;;16.92;4.68;;;;;;;22.96;38.72;99842.56;4467910;32;33621;-50
2021/04/12 00:25:08;;;;;;;10.95;3.95;;;;;;;22.96;38.71;99840.66;4467568;32;34384;-47
2021/04/12 00:27:38;;;;;;;30.75;5.43;;;;;;;22.95;38.63;99833.56;4481619;32;33489;-48
2021/04/12 00:30:11;;;;;;;11.57;3.80;;;;;;;22.95;38.71;99832.72;4484102;32;33682;-48
2021/04/12 00:32:41;;;;;;;13.65;3.67;;;;;;;22.95;38.63;99828.13;4484345;32;34371;-50
2021/04/12 00:35:24;;;;;;;10.77;4.07;;;;;;;22.92;38.60;99817.66;4484021;32;32957;-49
2021/04/12 00:38:09;;;;;;;10.90;3.72;;;;;;;22.94;38.77;99820.16;4484149;31;33577;-52
2021/04/12 00:40:44;;;;;;;11.23;4.12;;;;;;;22.94;38.77;99820.97;4482055;32;33579;-55
2021/04/12 00:43:22;;;;;;;12.43;4.07;;;;;;;22.93;38.72;99824.75;4475987;32;34604;-50
2021/04/12 00:46:03;;;;;;;14.32;4.18;;;;;;;22.93;38.71;99819.31;4468068;32;33109;-48
2021/04/12 00:49:03;;;;;;;9.02;3.58;;;;;;;22.93;38.77;99827.47;4475212;32;34618;-50
2021/04/12 00:51:51;;;;;;;15.20;3.62;;;;;;;22.94;38.73;99825.59;4483030;32;33809;-49
2021/04/12 00:54:40;;;;;;;11.82;3.92;;;;;;;22.89;38.75;99818.94;4482996;32;33722;-50
2021/04/12 00:57:40;;;;;;;11.23;3.70;;;;;;;22.91;38.72;99818.72;4483217;32;33113;-49
2021/04/12 01:00:19;;;;;;;24.58;4.18;;;;;;;22.94;38.60;99818.25;4478384;32;33705;-51
2021/04/12 01:03:25;;;;;;;16.37;5.25;;;;;;;22.90;38.74;99817.91;4467449;32;33565;-48
2021/04/12 01:06:03;;;;;;;15.23;3.95;;;;;;;22.93;38.88;99819.31;4483664;32;33653;-51
2021/04/12 01:09:03;;;;;;;11.15;3.80;;;;;;;22.90;38.89;99806.19;4470124;32;33315;-52
2021/04/12 01:12:08;;;;;;;17.83;3.95;;;;;;;22.92;38.84;99809.50;4482743;32;33937;-49
2021/04/12 01:14:54;;;;;;;8.00;3.28;;;;;;;22.92;38.75;99812.22;4483889;32;34764;-52
2021/04/12 01:17:34;;;;;;;11.18;3.00;;;;;;;22.90;38.79;99811.63;4483573;32;34716;-50
2021/04/12 01:20:35;;;;;;;11.98;3.60;;;;;;;22.86;38.77;99813.91;4482728;32;33062;-49
2021/04/12 01:23:39;;;;;;;13.15;3.30;;;;;;;22.91;38.55;99813.28;4483888;32;33449;-49
2021/04/12 01:26:28;;;;;;;9.30;3.15;;;;;;;22.89;38.67;99809.94;4483753;32;33857;-51
2021/04/12 01:29:38;;;;;;;10.90;3.65;;;;;;;22.89;38.56;99813.50;4483507;32;33336;-49
2021/04/12 01:32:30;;;;;;;12.95;3.87;;;;;;;22.89;38.61;99810.75;4482609;32;33361;-55
2021/04/12 01:35:14;;;;;;;12.73;3.40;;;;;;;22.88;38.67;99811.78;4483538;32;33654;-52
2021/04/12 01:37:50;;;;;;;10.93;3.67;;;;;;;22.87;38.65;99791.09;4482554;32;33712;-49
2021/04/12 01:40:48;;;;;;;9.45;3.25;;;;;;;22.85;38.73;99790.50;4482171;32;33744;-51
2021/04/12 01:43:57;;;;;;;8.48;3.40;;;;;;;22.85;38.59;99793.22;4467971;32;33153;-48
2021/04/12 01:46:32;;;;;;;7.47;3.40;;;;;;;22.87;38.68;99793.81;4467989;32;33778;-48
2021/04/12 01:49:43;;;;;;;12.05;4.00;;;;;;;22.85;38.83;99789.66;4467681;32;33881;-50
2021/04/12 01:52:42;;;;;;;12.52;3.45;;;;;;;22.87;38.89;99776.66;4478860;32;33794;-48
2021/04/12 01:55:35;;;;;;;9.38;3.60;;;;;;;22.88;39.20;99791.91;4482441;32;33282;-51
2021/04/12 01:58:21;;;;;;;9.85;3.28;;;;;;;22.86;39.14;99784.00;4483552;32;34070;-48
2021/04/12 02:01:16;;;;;;;9.68;3.42;;;;;;;22.85;38.91;99784.22;4482467;32;33923;-48
2021/04/12 02:04:13;;;;;;;13.38;4.07;;;;;;;22.84;39.02;99791.53;4481795;32;34183;-52
2021/04/12 02:06:48;;;;;;;10.13;3.50;;;;;;;22.87;39.04;99779.37;4481945;32;33416;-49
2021/04/12 02:09:27;;;;;;;9.82;3.55;;;;;;;22.84;39.06;99786.09;4479058;32;33722;-50
2021/04/12 02:12:15;;;;;;;10.18;4.18;;;;;;;22.83;38.98;99779.00;4467545;32;33824;-53
2021/04/12 02:15:00;;;;;;;10.82;3.60;;;;;;;22.86;39.10;99775.84;4466352;32;33831;-50
2021/04/12 02:18:04;;;;;;;11.00;3.35;;;;;;;22.84;39.07;99771.66;4466637;32;33831;-52
2021/04/12 02:20:57;;;;;;;11.65;3.55;;;;;;;22.85;39.12;99779.63;4466216;32;33693;-49
2021/04/12 02:23:30;;;;;;;10.73;3.58;;;;;;;22.84;39.08;99777.09;4466126;32;33850;-51
2021/04/12 02:26:47;;;;;;;11.18;3.85;;;;;;;22.81;39.36;99772.94;4478076;32;34414;-50
2021/04/12 02:29:30;;;;;;;14.10;3.47;;;;;;;22.84;39.33;99764.31;4474948;31;34096;-49
2021/04/12 02:32:23;;;;;;;9.48;3.10;;;;;;;22.82;39.27;99758.28;4482000;31;33834;-52
2021/04/12 02:35:05;;;;;;;7.53;3.75;;;;;;;22.83;39.16;99759.13;4481817;32;33946;-51
2021/04/12 02:37:40;;;;;;;11.65;3.10;;;;;;;22.82;39.37;99761.00;4483224;32;33662;-49
2021/04/12 02:40:22;;;;;;;9.15;3.37;;;;;;;22.81;39.08;99758.53;4484492;31;33557;-52
2021/04/12 02:43:17;;;;;;;11.27;3.30;;;;;;;22.82;39.38;99758.28;4484875;32;33794;-54
2021/04/12 02:46:03;;;;;;;8.32;3.12;;;;;;;22.81;39.48;99761.25;4471916;32;33741;-47
2021/04/12 02:48:32;;;;;;;12.50;3.33;;;;;;;22.83;39.33;99764.56;4476527;32;34440;-56
2021/04/12 02:51:25;;;;;;;10.02;3.22;;;;;;;22.80;39.17;99760.41;4467884;32;34228;-56
2021/04/12 02:54:04;;;;;;;7.03;3.00;;;;;;;22.82;39.21;99758.28;4459707;32;34570;-56
2021/04/12 02:56:33;;;;;;;8.20;3.45;;;;;;;22.80;39.43;99756.84;4469289;32;33871;-53
2021/04/12 02:59:09;;;;;;;13.18;3.78;;;;;;;22.80;39.44;99754.09;4472168;32;33650;-51
2021/04/12 03:01:49;;;;;;;9.68;3.40;;;;;;;22.79;39.36;99741.56;4484796;32;33241;-53
2021/04/12 03:04:43;;;;;;;7.68;3.15;;;;;;;22.81;39.38;99750.37;4484721;32;33762;-56
2021/04/12 03:07:46;;;;;;;6.35;3.22;;;;;;;22.82;39.34;99749.28;4468957;32;34867;-56
2021/04/12 03:10:22;;;;;;;7.82;3.22;;;;;;;22.82;39.46;99741.13;4467923;32;33817;-55
2021/04/12 03:13:11;;;;;;;12.93;3.60;;;;;;;22.79;39.48;99745.12;4469251;32;34022;-53
2021/04/12 03:15:58;;;;;;;6.65;2.70;;;;;;;22.79;39.38;99747.00;4471273;32;33883;-57
2021/04/12 03:18:37;;;;;;;6.62;2.80;;;;;;;22.79;39.36;99738.84;4483485;32;33824;-53
2021/04/12 03:21:32;;;;;;;7.35;2.75;;;;;;;22.80;38.98;99741.37;4483639;32;33636;-55
2021/04/12 03:24:13;;;;;;;9.90;3.40;;;;;;;22.81;38.85;99734.03;4484824;32;33465;-57
2021/04/12 03:27:08;;;;;;;10.05;3.58;;;;;;;22.78;39.48;99751.63;4483472;32;34388;-56
2021/04/12 03:30:06;;;;;;;7.90;3.20;;;;;;;22.81;39.36;99758.53;4483522;32;34765;-51
2021/04/12 03:32:40;;;;;;;5.15;2.47;;;;;;;22.80;39.50;99752.25;4484528;32;34642;-54
2021/04/12 03:35:46;;;;;;;10.40;3.92;;;;;;;22.76;39.04;99750.19;4484600;32;34020;-57
2021/04/12 03:38:22;;;;;;;8.60;2.92;;;;;;;22.80;39.28;99745.94;4484670;32;34594;-55
2021/04/12 03:41:01;;;;;;;9.38;2.90;;;;;;;22.75;39.35;99743.91;4484578;32;33747;-57
2021/04/12 03:43:45;;;;;;;11.18;2.75;;;;;;;22.77;39.23;99760.84;4483228;32;33678;-56
2021/04/12 03:46:20;;;;;;;6.60;2.95;;;;;;;22.76;39.33;99750.19;4480808;32;33974;-50
2021/04/12 03:48:56;;;;;;;7.93;2.87;;;;;;;22.76;39.09;99747.47;4474917;32;33739;-53
2021/04/12 03:51:43;;;;;;;10.85;3.45;;;;;;;22.74;39.35;99755.00;4482403;32;34622;-54
2021/04/12 03:54:26;;;;;;;12.32;3.22;;;;;;;22.76;39.32;99758.34;4484321;32;34567;-50
2021/04/12 03:57:31;;;;;;;8.90;2.90;;;;;;;22.76;39.28;99758.34;4468812;32;33282;-49
2021/04/12 04:00:19;;;;;;;11.02;3.17;;;;;;;22.76;39.25;99753.75;4468743;32;33783;-48
2021/04/12 04:03:05;;;;;;;20.67;3.17;;;;;;;22.73;39.54;99743.31;4482966;32;33919;-57
2021/04/12 04:06:11;;;;;;;7.53;3.22;;;;;;;22.72;39.64;99741.66;4484333;32;33688;-58
2021/04/12 04:08:55;;;;;;;8.02;3.35;;;;;;;22.73;39.59;99745.19;4468479;32;33283;-56
2021/04/12 04:11:43;;;;;;;5.53;2.58;;;;;;;22.71;39.44;99750.00;4467668;32;34625;-56
2021/04/12 04:14:15;;;;;;;7.00;2.58;;;;;;;22.72;39.16;99748.97;4467302;32;34801;-56
2021/04/12 04:17:20;;;;;;;7.90;2.85;;;;;;;22.71;39.43;99763.59;4468773;32;33973;-58
2021/04/12 04:20:04;;;;;;;5.70;2.70;;;;;;;22.73;39.27;99762.34;4472642;32;34106;-53
2021/04/12 04:23:02;;;;;;;6.68;3.75;;;;;;;22.70;39.53;99770.09;4478638;32;33780;-47
2021/04/12 04:25:41;;;;;;;13.23;3.70;;;;;;;22.71;39.51;99761.75;4476944;32;34732;-48
2021/04/12 04:28:32;;;;;;;9.60;3.25;;;;;;;22.71;39.49;99760.88;4468488;32;33854;-51
2021/04/12 04:31:15;;;;;;;9.40;3.12;;;;;;;22.71;39.23;99755.44;4467671;32;33215;-53
2021/04/12 04:33:54;;;;;;;5.62;2.42;;;;;;;22.72;39.40;99749.81;4481030;32;33751;-54
2021/04/12 04:36:30;;;;;;;11.73;3.22;;;;;;;22.71;39.07;99745.44;4470614;32;34839;-54
2021/04/12 04:39:03;;;;;;;8.05;2.58;;;;;;;22.73;39.26;99761.50;4484168;32;35312;-57
2021/04/12 04:42:04;;;;;;;8.48;2.83;;;;;;;22.71;39.51;99772.63;4484016;32;33297;-55
2021/04/12 04:44:53;;;;;;;7.97;2.55;;;;;;;22.73;39.46;99775.94;4484006;32;34525;-56
2021/04/12 04:47:45;;;;;;;7.22;2.80;;;;;;;22.71;39.28;99774.50;4484273;32;33975;-57
2021/04/12 04:50:50;;;;;;;13.02;2.90;;;;;;;22.71;39.19;99779.94;4484118;32;33746;-53
2021/04/12 04:53:33;;;;;;;6.70;2.78;;;;;;;22.72;39.35;99774.28;4482894;32;34054;-55
2021/04/12 04:56:18;;;;;;;7.07;3.30;;;;;;;22.71;39.02;99778.06;4473901;32;33783;-50
2021/04/12 04:59:09;;;;;;;8.02;3.03;;;;;;;22.69;39.19;99782.06;4481831;32;34988;-49
2021/04/12 05:02:14;;;;;;;7.93;2.85;;;;;;;22.72;39.29;99781.63;4483968;32;33944;-48
2021/04/12 05:05:03;;;;;;;9.45;3.00;;;;;;;22.71;39.32;99778.06;4483818;32;34342;-53
2021/04/12 05:07:42;;;;;;;10.13;3.47;;;;;;;22.69;39.55;99782.06;4483987;32;33714;-51
2021/04/12 05:10:25;;;;;;;9.90;2.95;;;;;;;22.70;39.73;99789.16;4484016;32;33789;-48
2021/04/12 05:13:13;;;;;;;9.60;3.03;;;;;;;22.71;39.67;99790.81;4483980;32;34060;-48
2021/04/12 05:16:04;;;;;;;8.52;2.70;;;;;;;22.72;39.57;99789.78;4482871;32;33259;-53
2021/04/12 05:19:16;;;;;;;8.52;2.80;;;;;;;22.71;39.55;99802.53;4475626;32;33475;-55
2021/04/12 05:21:47;;;;;;;13.18;3.05;;;;;;;22.72;39.54;99797.94;4455704;32;34381;-56
2021/04/12 05:24:43;;;;;;;7.78;2.22;;;;;;;22.70;39.60;99800.84;4477059;32;34424;-52
2021/04/12 05:27:45;;;;;;;10.00;3.00;;;;;;;22.72;39.64;99801.47;4458088;31;33237;-51
2021/04/12 05:30:24;;;;;;;8.75;2.70;;;;;;;22.72;39.57;99800.66;4468199;32;33807;-50
2021/04/12 05:32:56;;;;;;;9.10;2.40;;;;;;;22.70;39.57;99800.84;4475549;32;33685;-48
2021/04/12 05:35:39;;;;;;;8.07;2.60;;;;;;;22.70;39.61;99800.84;4482785;32;33616;-50
2021/04/12 05:38:14;;;;;;;7.97;3.00;;;;;;;22.70;39.57;99789.16;4483761;32;34058;-51
2021/04/12 05:41:28;;;;;;;10.50;2.50;;;;;;;22.68;39.66;99786.66;4470017;32;33872;-49
2021/04/12 05:44:17;;;;;;;10.93;3.00;;;;;;;22.74;39.49;99790.38;4470146;32;33738;-49
2021/04/12 05:47:00;;;;;;;9.38;2.70;;;;;;;22.70;39.68;99792.69;4466619;32;33770;-49
2021/04/12 05:49:46;;;;;;;8.25;2.50;;;;;;;22.70;39.19;99794.59;4475653;32;34042;-50
2021/04/12 05:52:51;;;;;;;6.65;2.97;;;;;;;22.68;39.45;99789.38;4483165;32;33811;-51
2021/04/12 05:55:55;;;;;;;7.80;2.40;;;;;;;22.70;39.34;99791.88;4482960;32;33943;-48
2021/04/12 05:58:25;;;;;;;12.50;3.10;;;;;;;22.69;39.38;99784.78;4467698;32;33644;-48
2021/04/12 06:01:14;;;;;;;10.90;2.65;;;;;;;22.66;39.32;99800.50;4467622;32;33390;-48
2021/04/12 06:03:53;;;;;;;8.25;2.40;;;;;;;22.66;39.43;99789.63;4467455;32;34395;-52
2021/04/12 06:06:29;;;;;;;9.75;2.97;;;;;;;22.66;39.38;99786.88;4472246;32;33532;-51
2021/04/12 06:09:21;;;;;;;15.68;6.82;;;;;;;22.66;39.34;99791.47;4474902;32;33522;-52
2021/04/12 06:12:12;;;;;;;13.02;7.35;;;;;;;22.79;35.72;99785.09;4471375;32;33226;-48
2021/04/12 06:14:54;;;;;;;15.00;7.82;;;;;;;22.73;33.81;99781.38;4480518;32;33649;-50
2021/04/12 06:17:57;;;;;;;17.12;8.35;;;;;;;22.66;33.13;99775.16;4480139;32;33856;-54
2021/04/12 06:20:38;;;;;;;17.65;7.70;;;;;;;22.61;32.77;99775.81;4483865;32;33698;-48
2021/04/12 06:23:08;;;;;;;19.55;7.55;;;;;;;22.44;33.83;99774.72;4469337;32;33352;-55
2021/04/12 06:26:04;;;;;;;13.35;6.72;;;;;;;22.38;34.07;99771.00;4469324;32;34590;-56
2021/04/12 06:28:41;;;;;;;18.85;7.57;;;;;;;22.50;34.32;99767.56;4477502;32;33484;-54
2021/04/12 06:31:30;;;;;;;13.50;6.62;;;;;;;22.67;34.61;99776.84;4469348;32;33507;-51
2021/04/12 06:33:57;;;;;;;16.65;6.40;;;;;;;22.92;34.71;99769.53;4469409;32;33498;-51
2021/04/12 06:36:44;;;;;;;12.32;6.30;;;;;;;23.10;34.77;99765.16;4483006;32;33631;-50
2021/04/12 06:39:53;;;;;;;12.85;5.50;;;;;;;23.33;34.69;99770.78;4476554;32;33875;-48
2021/04/12 06:42:39;;;;;;;12.43;5.68;;;;;;;23.59;34.56;99776.97;4481609;32;33687;-54
2021/04/12 06:45:29;;;;;;;12.98;5.68;;;;;;;23.79;34.48;99774.03;4475351;32;32932;-50
2021/04/12 06:48:28;;;;;;;19.62;5.82;;;;;;;23.98;34.40;99777.56;4447105;31;34551;-50
2021/04/12 06:51:19;;;;;;;13.50;5.22;;;;;;;24.13;34.36;99780.69;4468777;32;34736;-50
2021/04/12 06:54:17;;;;;;;15.30;5.82;;;;;;;24.22;34.37;99778.47;4472516;32;33634;-52
2021/04/12 06:57:03;;;;;;;13.85;5.75;;;;;;;24.33;34.40;99770.31;4484892;32;33292;-52
2021/04/12 07:00:06;;;;;;;18.37;5.37;;;;;;;24.42;34.47;99779.03;4484662;32;34597;-50
2021/04/12 07:03:01;;;;;;;12.68;5.30;;;;;;;24.46;34.54;99780.22;4470004;32;34506;-51
2021/04/12 07:05:53;;;;;;;14.87;5.73;;;;;;;24.47;34.66;99775.59;4470701;32;33865;-54
2021/04/12 07:08:21;;;;;;;11.60;5.20;;;;;;;24.53;34.75;99774.66;4483487;32;34027;-51
2021/04/12 07:11:05;;;;;;;13.62;5.32;;;;;;;24.51;34.89;99783.09;4484661;32;33919;-56
2021/04/12 07:14:12;;;;;;;11.90;5.03;;;;;;;24.52;35.00;99782.00;4483172;32;33882;-53
2021/04/12 07:16:58;;;;;;;13.23;4.97;;;;;;;24.55;35.10;99775.28;4484707;32;33418;-53
2021/04/12 07:19:37;;;;;;;10.00;4.90;;;;;;;24.53;35.20;99777.38;4484438;32;33393;-53
2021/04/12 07:22:23;;;;;;;10.60;5.20;;;;;;;24.50;35.32;99781.44;4484228;32;33644;-55
2021/04/12 07:25:03;;;;;;;13.25;5.15;;;;;;;24.52;35.35;99784.75;4484627;32;33653;-50
2021/04/12 07:28:21;;;;;;;12.88;4.70;;;;;;;24.49;35.46;99773.50;4483384;32;34384;-48
2021/04/12 07:31:32;;;;;;;10.85;4.90;;;;;;;24.49;35.54;99778.94;4451058;31;33181;-53
2021/04/12 07:34:37;;;;;;;10.13;4.72;;;;;;;24.47;35.59;99754.59;4461448;31;33641;-51
2021/04/12 07:37:38;;;;;;;10.90;5.40;;;;;;;24.43;35.73;99757.00;4483863;32;33476;-53
2021/04/12 07:40:28;;;;;;;9.85;4.55;;;;;;;24.39;35.80;99763.16;4456162;32;33365;-51
2021/04/12 07:43:26;;;;;;;11.77;5.47;;;;;;;24.33;35.95;99769.50;4476732;32;33274;-54
2021/04/12 07:46:25;;;;;;;10.98;4.90;;;;;;;24.32;36.11;99762.38;4483589;32;33793;-51
2021/04/12 07:49:23;;;;;;;12.05;5.07;;;;;;;24.29;36.02;99760.94;4484509;32;34673;-48
2021/04/12 07:51:53;;;;;;;11.55;5.47;;;;;;;24.25;36.12;99762.50;4477030;32;33574;-50
2021/04/12 07:54:48;;;;;;;13.25;5.10;;;;;;;24.20;36.09;99767.78;4473910;32;34186;-55
2021/04/12 07:57:46;;;;;;;19.58;5.60;;;;;;;24.21;36.27;99768.66;4469098;32;34934;-54
2021/04/12 08:00:43;;;;;;;15.10;5.10;;;;;;;24.18;36.41;99773.47;4467334;32;33984;-55
2021/04/12 08:03:47;;;;;;;12.90;5.65;;;;;;;24.14;36.49;99769.56;4468417;32;34450;-53
2021/04/12 08:06:31;;;;;;;13.65;5.28;;;;;;;24.11;36.58;99780.94;4477829;32;34049;-54
2021/04/12 08:09:29;;;;;;;15.73;5.35;;;;;;;24.06;36.77;99778.06;4474235;32;34290;-51
2021/04/12 08:12:23;;;;;;;13.38;5.32;;;;;;;24.06;36.79;99777.22;4468321;32;33561;-52
2021/04/12 08:15:16;;;;;;;11.45;4.87;;;;;;;24.03;36.96;99778.53;4469971;32;33945;-54
2021/04/12 08:18:23;;;;;;;13.90;4.80;;;;;;;23.99;37.17;99769.16;4468715;32;34113;-54
2021/04/12 08:21:12;;;;;;;13.27;4.83;;;;;;;23.99;37.21;99771.87;4477329;32;33741;-52
2021/04/12 08:24:13;;;;;;;13.38;4.95;;;;;;;23.95;37.33;99781.56;4482947;32;33708;-52
2021/04/12 08:27:12;;;;;;;10.93;4.80;;;;;;;23.96;37.39;99779.66;4483552;32;34505;-51
2021/04/12 08:30:09;;;;;;;14.87;5.30;;;;;;;23.94;37.58;99785.38;4478650;32;34298;-52
2021/04/12 08:32:56;;;;;;;13.02;5.75;;;;;;;23.91;37.71;99788.53;4447304;32;33715;-53
2021/04/12 08:35:54;;;;;;;22.35;5.18;;;;;;;23.90;37.72;99778.72;4468808;32;33568;-51
2021/04/12 08:38:45;;;;;;;14.25;4.97;;;;;;;23.90;37.84;99778.72;4484059;32;33816;-53
2021/04/12 08:41:38;;;;;;;12.70;4.62;;;;;;;23.88;38.07;99767.22;4482951;32;33509;-50
2021/04/12 08:44:27;;;;;;;15.57;5.30;;;;;;;23.89;38.08;99777.06;4482695;32;33916;-51
2021/04/12 08:47:08;;;;;;;12.27;4.80;;;;;;;23.88;38.10;99775.41;4484018;32;35013;-49
2021/04/12 08:49:41;;;;;;;16.05;5.10;;;;;;;23.87;38.21;99770.97;4466647;32;33597;-53
2021/04/12 08:52:10;;;;;;;14.15;5.35;;;;;;;23.84;38.18;99771.47;4474168;32;33265;-59
2021/04/12 08:55:03;;;;;;;13.38;4.75;;;;;;;23.87;38.30;99763.63;4484131;32;33728;-52
2021/04/12 08:58:01;;;;;;;17.15;4.87;;;;;;;23.87;38.19;99766.34;4483945;32;33945;-48
2021/04/12 09:00:35;;;;;;;16.08;5.00;;;;;;;23.86;38.11;99755.69;4484196;32;34332;-50
2021/04/12 09:03:21;;;;;;;16.00;5.62;;;;;;;23.85;38.14;99754.03;4482183;32;33246;-49
2021/04/12 09:06:06;;;;;;;12.00;4.90;;;;;;;23.85;38.18;99745.88;4476124;32;33837;-49
2021/04/12 09:09:06;;;;;;;17.77;5.40;;;;;;;23.85;37.93;99749.41;4483255;32;33924;-50
2021/04/12 09:12:11;;;;;;;18.05;4.90;;;;;;;23.84;37.72;99738.75;4483304;32;33693;-51
2021/04/12 09:15:04;;;;;;;18.37;5.32;;;;;;;23.83;37.80;99727.03;4484249;32;33245;-50
2021/04/12 09:17:34;;;;;;;18.05;5.07;;;;;;;23.83;37.88;99737.94;4483275;32;33569;-50
2021/04/12 09:20:10;;;;;;;12.65;5.47;;;;;;;23.80;37.94;99727.50;4483858;32;33600;-49
2021/04/12 09:23:08;;;;;;;18.17;4.43;;;;;;;23.81;38.03;99731.03;4469590;32;34505;-54
2021/04/12 09:26:05;;;;;;;13.60;4.87;;;;;;;23.83;38.01;99715.31;4470361;32;33162;-50
2021/04/12 09:28:51;;;;;;;18.15;4.65;;;;;;;23.83;38.07;99726.22;4467229;32;34326;-52
2021/04/12 09:31:59;;;;;;;11.05;4.30;;;;;;;23.80;37.57;99732.94;4476571;32;33954;-51
2021/04/12 09:35:00;;;;;;;15.68;4.68;;;;;;;23.86;37.68;99723.81;4478160;32;33866;-50
2021/04/12 09:38:01;;;;;;;15.20;4.50;;;;;;;23.85;37.76;99726.78;4468012;32;33070;-49
2021/04/12 09:40:43;;;;;;;18.95;4.68;;;;;;;23.81;37.76;99726.41;4467561;32;33942;-54
2021/04/12 09:43:44;;;;;;;20.12;4.45;;;;;;;23.77;37.80;99725.22;4466849;32;33881;-48
2021/04/12 09:46:32;;;;;;;;;;;;;;;23.78;37.95;99729.63;4469285;32;33515;-51
2021/04/12 09:49:09;;;;;;;12.98;4.53;;;;;;;23.87;37.80;99721.94;4482882;32;34527;-53
2021/04/12 09:51:42;;;;;;;11.88;4.45;;;;;;;23.76;37.96;99715.38;4466574;32;33869;-51
2021/04/12 09:54:45;;;;;;;12.68;4.22;;;;;;;23.74;38.12;99711.25;4467595;32;33826;-52
2021/04/12 09:57:37;;;;;;;12.95;4.47;;;;;;;23.73;38.22;99706.84;4466620;32;33824;-50
2021/04/12 10:00:42;;;;;;;14.98;4.80;;;;;;;23.71;38.29;99708.97;4466556;32;33189;-50
2021/04/12 10:03:34;;;;;;;15.77;5.15;;;;;;;23.72;38.29;99692.38;4467855;32;34359;-54
2021/04/12 10:06:20;;;;;;;15.27;4.28;;;;;;;23.71;38.41;99696.19;4464630;32;85413;-53
2021/04/12 10:09:12;;;;;;;11.63;4.28;;;;;;;23.67;38.49;99690.34;4467426;32;33676;-55
2021/04/12 10:11:50;;;;;;;15.82;4.80;;;;;;;23.67;38.56;99695.81;4467789;32;33405;-52
2021/04/12 10:14:17;;;;;;;13.85;4.35;;;;;;;23.64;38.60;99689.97;4466184;32;33684;-53
2021/04/12 10:16:52;;;;;;;14.68;4.25;;;;;;;23.63;38.58;99688.28;4467478;32;33866;-51
2021/04/12 10:19:31;;;;;;;13.70;4.22;;;;;;;23.63;38.62;99680.94;4466095;32;34692;-53
2021/04/12 10:22:06;;;;;;;16.95;4.20;;;;;;;23.64;38.63;99679.94;4453094;32;33290;-50
2021/04/12 10:24:42;;;;;;;12.10;4.35;;;;;;;23.66;38.60;99680.53;4470445;32;33744;-53
2021/04/12 10:27:27;;;;;;;9.45;3.92;;;;;;;23.63;38.66;99683.66;4481942;32;34133;-53
2021/04/12 10:30:00;;;;;;;13.35;4.35;;;;;;;23.66;38.61;99664.19;4465398;32;33648;-49
2021/04/12 10:32:31;;;;;;;11.43;4.37;;;;;;;23.64;38.59;99662.72;4466184;32;33387;-48
2021/04/12 10:35:09;;;;;;;10.30;4.07;;;;;;;23.66;38.65;99671.53;4465802;32;33655;-52
2021/04/12 10:37:44;;;;;;;10.90;3.87;;;;;;;23.66;38.67;99669.62;4465893;32;33948;-52
2021/04/12 10:40:31;;;;;;;10.95;3.47;;;;;;;23.63;38.70;99671.94;4465838;32;33659;-51
2021/04/12 10:43:05;;;;;;;11.30;4.00;;;;;;;23.62;38.69;99649.31;4465163;32;34054;-51
2021/04/12 10:45:39;;;;;;;17.80;4.93;;;;;;;23.63;38.67;99650.16;4463271;32;33935;-54
2021/04/12 10:48:25;;;;;;;14.50;4.30;;;;;;;23.63;38.59;99661.88;4466102;32;33990;-53
2021/04/12 10:51:13;;;;;;;13.52;4.47;;;;;;;23.66;38.52;99663.34;4479754;32;34641;-53
2021/04/12 10:54:18;;;;;;;11.63;4.55;;;;;;;23.65;38.49;99658.97;4482770;32;33249;-52
2021/04/12 10:56:58;;;;;;;11.32;3.85;;;;;;;23.64;38.52;99652.69;4482495;32;33765;-50
2021/04/12 10:59:50;;;;;;;11.23;3.95;;;;;;;23.64;38.54;99665.47;4468123;32;33937;-52
2021/04/12 11:02:38;;;;;;;13.90;4.47;;;;;;;23.62;38.56;99654.78;4468962;32;33672;-54
2021/04/12 11:05:08;;;;;;;15.82;4.68;;;;;;;23.60;38.63;99656.09;4467739;32;34037;-53
2021/04/12 11:07:41;;;;;;;12.00;3.95;;;;;;;23.57;38.66;99649.19;4467748;32;34754;-51
2021/04/12 11:10:32;;;;;;;13.75;3.87;;;;;;;23.59;38.69;99655.22;4469126;32;34452;-55
2021/04/12 11:13:09;;;;;;;15.38;4.40;;;;;;;23.61;38.69;99644.94;4468884;32;34647;-54
2021/04/12 11:15:42;;;;;;;15.02;4.65;;;;;;;23.58;38.73;99642.69;4455193;32;33446;-52
2021/04/12 11:18:33;;;;;;;12.70;3.92;;;;;;;23.57;38.75;99643.75;4467926;32;33537;-49
2021/04/12 11:21:23;;;;;;;11.07;3.87;;;;;;;23.59;38.73;99635.34;4467915;32;33854;-53
2021/04/12 11:24:33;;;;;;;9.40;3.58;;;;;;;23.59;38.74;99638.88;4467755;32;33732;-53
2021/04/12 11:27:28;;;;;;;15.27;3.50;;;;;;;23.55;38.85;99635.00;4442064;32;34096;-53
2021/04/12 11:30:22;;;;;;;14.45;4.00;;;;;;;23.58;38.91;99639.94;4451023;32;33694;-50
2021/04/12 11:32:56;;;;;;;11.07;3.75;;;;;;;23.56;38.98;99635.81;4476934;31;34605;-48
2021/04/12 11:36:16;;;;;;;12.57;4.03;;;;;;;23.52;38.88;99643.59;4484641;32;34511;-48
2021/04/12 11:39:01;;;;;;;15.75;3.83;;;;;;;23.55;38.87;99637.72;4461121;31;32912;-53
2021/04/12 11:41:33;;;;;;;16.75;3.90;;;;;;;23.56;38.78;99627.66;4482509;32;33376;-55
2021/04/12 11:44:32;;;;;;;10.73;3.70;;;;;;;23.52;38.90;99623.72;4471284;32;34733;-49
2021/04/12 11:47:26;;;;;;;16.15;4.37;;;;;;;23.52;38.87;99619.09;4465582;32;33902;-49
2021/04/12 11:50:04;;;;;;;19.02;4.60;;;;;;;23.53;38.78;99631.66;4468814;32;33128;-50
2021/04/12 11:52:37;;;;;;;10.60;4.10;;;;;;;23.49;38.84;99616.00;4467663;32;34526;-48
2021/04/12 11:55:24;;;;;;;13.20;4.30;;;;;;;23.47;38.77;99616.25;4467398;32;33884;-52
2021/04/12 11:57:57;;;;;;;13.95;3.95;;;;;;;23.50;38.68;99609.50;4469149;32;34497;-51
2021/04/12 12:00:29;;;;;;;14.77;4.62;;;;;;;23.47;38.56;99612.69;4466512;32;33949;-50
2021/04/12 12:03:19;;;;;;;20.83;4.20;;;;;;;23.46;38.46;99611.87;4471306;32;34653;-49
2021/04/12 12:05:52;;;;;;;;;;;;;;;23.49;38.29;99618.72;4482609;32;34107;-49
2021/04/12 12:08:28;;;;;;;16.00;4.20;;;;;;;23.55;38.15;99607.75;4484358;32;33673;-49
2021/04/12 12:11:08;;;;;;;16.37;4.10;;;;;;;23.46;38.18;99609.16;4483108;32;33059;-48
2021/04/12 12:13:39;;;;;;;10.80;3.47;;;;;;;23.44;38.19;99613.97;4484502;32;34581;-49
2021/04/12 12:16:25;;;;;;;14.63;3.60;;;;;;;23.41;38.23;99609.84;4470230;32;33842;-50
2021/04/12 12:19:02;;;;;;;15.20;3.87;;;;;;;23.41;38.25;99609.00;4483420;32;33466;-51
2021/04/12 12:21:38;;;;;;;18.80;4.50;;;;;;;23.40;38.23;99605.44;4483122;32;33315;-48
2021/04/12 12:24:17;;;;;;;14.07;3.53;;;;;;;23.39;38.23;99611.13;4470113;32;33584;-48
2021/04/12 12:27:30;;;;;;;13.13;4.30;;;;;;;23.39;38.22;99609.22;4484225;32;33864;-51
2021/04/12 12:30:29;;;;;;;15.43;4.18;;;;;;;23.39;38.19;99606.50;4481806;32;33414;-49
2021/04/12 12:33:02;;;;;;;11.02;3.70;;;;;;;23.38;38.18;99604.84;4483029;32;34531;-49
2021/04/12 12:35:37;;;;;;;11.27;4.43;;;;;;;23.35;38.23;99599.84;4484307;32;33353;-51
2021/04/12 12:38:14;;;;;;;9.13;3.47;;;;;;;23.34;38.24;99598.19;4483094;32;34893;-48
2021/04/12 12:40:43;;;;;;;13.50;3.80;;;;;;;23.34;38.22;99594.63;4471223;32;33741;-53
2021/04/12 12:43:13;;;;;;;12.73;3.70;;;;;;;23.34;38.19;99590.03;4467364;32;33249;-49
2021/04/12 12:45:41;;;;;;;10.32;3.60;;;;;;;23.33;38.04;99590.28;4454458;32;34516;-49
2021/04/12 12:48:23;;;;;;;12.18;3.90;;;;;;;23.33;38.00;99591.09;4468577;32;33871;-52
2021/04/12 12:51:00;;;;;;;9.00;3.08;;;;;;;23.35;38.00;99582.69;4466629;32;33803;-53
2021/04/12 12:53:30;;;;;;;8.25;3.08;;;;;;;23.33;37.92;99588.38;4471655;32;33333;-56
2021/04/12 12:56:06;;;;;;;10.75;3.15;;;;;;;23.31;37.95;99586.94;4482962;32;33907;-50
2021/04/12 12:58:33;;;;;;;14.25;3.65;;;;;;;23.30;37.92;99585.28;4466481;32;33929;-50